createdAt,value
2022-11-29T00:01:36.904Z,20.50
2022-11-29T00:04:04.508Z,21.93
2022-11-29T00:06:34.152Z,20.77
2022-11-29T00:09:08.267Z,22.30
2022-11-29T00:11:56.304Z,22.13
2022-11-29T00:14:24.947Z,19.90
2022-11-29T00:16:55.195Z,22.43
2022-11-29T00:19:22.633Z,18.03
2022-11-29T00:21:49.561Z,21.63
2022-11-29T00:24:16.493Z,19.57
2022-11-29T00:26:43.380Z,20.30
2022-11-29T00:29:12.991Z,21.87
2022-11-29T00:31:40.963Z,22.47
2022-11-29T00:34:10.336Z,22.33
2022-11-29T00:36:37.773Z,20.40
2022-11-29T00:39:05.912Z,22.00
2022-11-29T00:41:32.943Z,18.17
2022-11-29T00:44:00.412Z,21.40
2022-11-29T00:46:27.349Z,19.13
2022-11-29T00:48:54.200Z,19.10
2022-11-29T00:51:20.997Z,22.67
2022-11-29T00:53:47.899Z,21.93
2022-11-29T00:56:14.785Z,20.37
2022-11-29T00:58:43.499Z,23.40
2022-11-29T01:01:11.590Z,20.20
2022-11-29T01:03:38.631Z,19.20
2022-11-29T01:06:12.353Z,18.83
2022-11-29T01:08:40.030Z,17.93
2022-11-29T01:11:33.366Z,19.17
2022-11-29T01:14:02.747Z,18.70
2022-11-29T01:16:31.048Z,21.80
2022-11-29T01:18:57.971Z,19.03
2022-11-29T01:21:25.328Z,21.23
2022-11-29T01:23:54.344Z,18.50
2022-11-29T01:26:25.346Z,18.73
2022-11-29T01:28:54.650Z,22.47
2022-11-29T01:31:28.547Z,18.70
2022-11-29T01:33:57.305Z,19.33
2022-11-29T01:36:25.149Z,19.17
2022-11-29T01:38:52.644Z,19.37
2022-11-29T01:41:26.559Z,19.20
2022-11-29T01:43:59.343Z,19.33
2022-11-29T01:46:28.903Z,21.27
2022-11-29T01:49:14.286Z,18.10
2022-11-29T01:51:46.185Z,18.87
2022-11-29T01:54:14.948Z,19.60
2022-11-29T01:56:43.052Z,19.83
2022-11-29T01:59:14.539Z,20.03
2022-11-29T02:01:41.509Z,23.27
2022-11-29T02:04:09.119Z,20.30
2022-11-29T02:06:37.387Z,21.23
2022-11-29T02:09:04.667Z,19.97
2022-11-29T02:12:07.453Z,20.60
2022-11-29T02:15:05.434Z,19.70
2022-11-29T02:17:40.711Z,21.37
2022-11-29T02:20:52.336Z,21.97
2022-11-29T02:23:47.331Z,21.37
2022-11-29T02:26:33.915Z,21.97
2022-11-29T02:29:33.708Z,21.33
2022-11-29T02:32:19.103Z,21.50
2022-11-29T02:34:54.316Z,29.43
2022-11-29T02:37:48.858Z,21.77
2022-11-29T02:40:58.359Z,21.30
2022-11-29T02:43:58.676Z,21.63
2022-11-29T02:47:02.511Z,24.20
2022-11-29T02:50:11.204Z,24.97
2022-11-29T02:53:01.309Z,23.03
2022-11-29T02:55:48.062Z,25.40
2022-11-29T02:58:34.069Z,24.93
2022-11-29T03:01:24.984Z,26.73
2022-11-29T03:04:30.033Z,25.83
2022-11-29T03:07:16.211Z,24.83
2022-11-29T03:10:02.763Z,24.50
2022-11-29T03:12:39.421Z,26.27
2022-11-29T03:15:38.996Z,27.13
2022-11-29T03:18:39.869Z,28.83
2022-11-29T03:21:36.063Z,23.83
2022-11-29T03:24:16.702Z,25.53
2022-11-29T03:26:49.907Z,23.43
2022-11-29T03:29:59.302Z,26.03
2022-11-29T03:32:45.504Z,24.47
2022-11-29T03:35:24.809Z,27.30
2022-11-29T03:38:17.019Z,24.37
2022-11-29T03:41:08.128Z,27.87
2022-11-29T03:44:05.471Z,23.37
2022-11-29T03:46:58.579Z,23.27
2022-11-29T03:49:54.600Z,26.47
2022-11-29T03:52:42.529Z,24.60
2022-11-29T03:55:12.340Z,26.57
2022-11-29T03:58:10.728Z,25.27
2022-11-29T04:01:39.325Z,28.80
2022-11-29T04:05:09.458Z,24.00
2022-11-29T04:08:05.923Z,26.53
2022-11-29T04:11:02.921Z,25.83
2022-11-29T04:14:03.820Z,24.27
2022-11-29T04:16:38.894Z,22.03
2022-11-29T04:19:28.687Z,24.13
2022-11-29T04:22:47.807Z,25.23
2022-11-29T04:25:41.297Z,22.43
2022-11-29T04:29:04.492Z,23.87
2022-11-29T04:32:08.892Z,23.17
2022-11-29T04:34:50.371Z,23.43
2022-11-29T04:37:45.884Z,24.27
2022-11-29T04:40:36.231Z,23.33
2022-11-29T04:43:35.518Z,23.13
2022-11-29T04:46:14.186Z,24.07
2022-11-29T04:49:13.199Z,24.03
2022-11-29T04:52:03.992Z,24.50
2022-11-29T04:54:55.010Z,23.43
2022-11-29T04:57:58.418Z,24.77
2022-11-29T05:00:25.355Z,25.43
2022-11-29T05:03:11.308Z,26.13
2022-11-29T05:05:51.230Z,25.37
2022-11-29T05:09:14.325Z,26.90
2022-11-29T05:12:05.342Z,26.10
2022-11-29T05:14:46.931Z,26.60
2022-11-29T05:17:47.555Z,24.03
2022-11-29T05:20:45.433Z,25.80
2022-11-29T05:24:10.010Z,23.90
2022-11-29T05:26:57.598Z,22.30
2022-11-29T05:30:23.719Z,25.27
2022-11-29T05:33:25.464Z,28.03
2022-11-29T05:35:53.091Z,24.80
2022-11-29T05:39:10.839Z,23.20
2022-11-29T05:42:06.552Z,26.57
2022-11-29T05:44:56.595Z,25.87
2022-11-29T05:47:36.751Z,26.60
2022-11-29T05:51:11.590Z,26.63
2022-11-29T05:54:26.033Z,23.17
2022-11-29T05:57:17.389Z,26.30
2022-11-29T05:59:46.369Z,25.37
2022-11-29T06:02:59.201Z,22.60
2022-11-29T06:05:39.557Z,25.17
2022-11-29T06:08:41.931Z,26.93
2022-11-29T06:11:40.096Z,27.83
2022-11-29T06:15:01.857Z,28.67
2022-11-29T06:17:55.191Z,26.93
2022-11-29T06:21:01.554Z,26.33
2022-11-29T06:23:43.684Z,23.30
2022-11-29T06:26:36.254Z,24.30
2022-11-29T06:29:23.923Z,25.63
2022-11-29T06:32:32.917Z,25.43
2022-11-29T06:35:28.151Z,22.87
2022-11-29T06:37:58.422Z,23.87
2022-11-29T06:40:25.869Z,22.40
2022-11-29T06:42:52.725Z,23.83
2022-11-29T06:45:21.752Z,22.47
2022-11-29T06:48:04.485Z,21.07
2022-11-29T06:51:02.031Z,22.03
2022-11-29T06:54:18.232Z,22.87
2022-11-29T06:57:20.821Z,21.70
2022-11-29T07:00:06.506Z,20.70
2022-11-29T07:03:14.308Z,22.53
2022-11-29T07:05:41.821Z,21.50
2022-11-29T07:08:18.819Z,19.87
2022-11-29T07:10:49.978Z,21.07
2022-11-29T07:13:18.325Z,21.73
2022-11-29T07:16:12.587Z,22.47
2022-11-29T07:18:54.534Z,20.80
2022-11-29T07:22:10.597Z,21.17
2022-11-29T07:25:11.361Z,24.20
2022-11-29T07:28:22.442Z,22.73
2022-11-29T07:31:28.930Z,20.40
2022-11-29T07:34:20.296Z,20.47
2022-11-29T07:37:18.805Z,21.63
2022-11-29T07:40:02.539Z,22.80
2022-11-29T07:42:51.034Z,20.87
2022-11-29T07:45:36.066Z,21.57
2022-11-29T07:48:03.697Z,20.87
2022-11-29T07:50:31.748Z,22.23
2022-11-29T07:52:59.785Z,23.80
2022-11-29T07:55:27.822Z,21.47
2022-11-29T07:57:54.654Z,22.87
2022-11-29T08:00:22.311Z,22.03
2022-11-29T08:02:50.532Z,24.13
2022-11-29T08:05:17.970Z,23.67
2022-11-29T08:07:46.348Z,23.57
2022-11-29T08:10:16.718Z,20.37
2022-11-29T08:12:50.290Z,22.87
2022-11-29T08:15:22.194Z,22.67
2022-11-29T08:17:49.640Z,22.47
2022-11-29T08:20:17.351Z,22.97
2022-11-29T08:22:44.230Z,24.00
2022-11-29T08:25:11.672Z,21.10
2022-11-29T08:27:38.994Z,23.33
2022-11-29T08:30:07.239Z,23.43
2022-11-29T08:32:34.989Z,22.33
2022-11-29T08:35:01.985Z,23.60
2022-11-29T08:37:28.760Z,24.47
2022-11-29T08:39:56.135Z,21.90
2022-11-29T08:42:22.907Z,22.23
2022-11-29T08:44:49.737Z,21.90
2022-11-29T08:47:35.143Z,22.93
2022-11-29T08:50:17.369Z,26.57
2022-11-29T08:53:06.153Z,24.60
2022-11-29T08:55:37.298Z,25.30
2022-11-29T08:58:07.839Z,24.17
2022-11-29T09:00:35.367Z,26.20
2022-11-29T09:03:23.604Z,24.03
2022-11-29T09:05:51.046Z,24.70
2022-11-29T09:08:18.287Z,23.83
2022-11-29T09:10:45.237Z,23.30
2022-11-29T09:13:12.885Z,23.50
2022-11-29T09:15:42.202Z,24.53
2022-11-29T09:18:09.223Z,23.23
2022-11-29T09:20:36.349Z,28.73
2022-11-29T09:23:03.143Z,26.20
2022-11-29T09:25:30.108Z,24.03
2022-11-29T09:28:01.272Z,25.00
2022-11-29T09:30:31.277Z,25.00
2022-11-29T09:33:02.619Z,23.97
2022-11-29T09:35:29.934Z,24.97
2022-11-29T09:37:56.775Z,26.23
2022-11-29T09:40:32.591Z,25.63
2022-11-29T09:43:50.435Z,24.97
2022-11-29T09:46:22.972Z,25.60
2022-11-29T09:49:19.744Z,24.43
2022-11-29T09:52:08.281Z,33.23
2022-11-29T09:55:31.636Z,111.23
2022-11-29T09:58:01.220Z,73.57
2022-11-29T10:00:31.154Z,41.30
2022-11-29T10:03:26.700Z,31.13
2022-11-29T10:06:22.143Z,30.63
2022-11-29T10:09:04.647Z,26.50
2022-11-29T10:11:56.266Z,28.57
2022-11-29T10:14:35.847Z,28.20
2022-11-29T10:17:40.685Z,24.20
2022-11-29T10:20:26.583Z,27.87
2022-11-29T10:23:01.410Z,64.33
2022-11-29T10:25:39.026Z,40.90
2022-11-29T10:28:13.831Z,32.53
2022-11-29T10:30:43.065Z,28.07
2022-11-29T10:33:25.595Z,25.67
2022-11-29T10:35:58.958Z,23.87
2022-11-29T10:38:31.189Z,25.20
2022-11-29T10:41:08.760Z,23.07
2022-11-29T10:43:37.384Z,23.97
2022-11-29T10:46:06.199Z,25.37
2022-11-29T10:48:34.721Z,23.93
2022-11-29T10:51:02.409Z,23.00
2022-11-29T10:53:37.446Z,23.27
2022-11-29T10:56:29.457Z,23.03
2022-11-29T10:58:57.979Z,27.23
2022-11-29T11:01:28.872Z,22.40
2022-11-29T11:03:58.038Z,24.03
2022-11-29T11:06:28.597Z,22.70
2022-11-29T11:09:12.420Z,23.30
2022-11-29T11:11:39.751Z,23.60
2022-11-29T11:14:25.655Z,23.57
2022-11-29T11:16:52.777Z,25.27
2022-11-29T11:19:30.826Z,25.60
2022-11-29T11:22:03.556Z,25.53
2022-11-29T11:24:33.783Z,26.07
2022-11-29T11:27:01.519Z,24.37
2022-11-29T11:29:45.374Z,25.50
2022-11-29T11:32:19.159Z,27.27
2022-11-29T11:34:59.454Z,23.93
2022-11-29T11:37:35.570Z,26.67
2022-11-29T11:40:29.181Z,23.60
2022-11-29T11:43:00.684Z,29.37
2022-11-29T11:45:35.563Z,27.57
2022-11-29T11:48:12.613Z,26.67
2022-11-29T11:50:52.274Z,24.33
2022-11-29T11:53:35.707Z,23.27
2022-11-29T11:56:10.919Z,25.97
2022-11-29T11:58:49.635Z,22.80
2022-11-29T12:01:36.328Z,23.50
2022-11-29T12:04:07.408Z,22.07
2022-11-29T12:06:58.900Z,26.03
2022-11-29T12:09:45.577Z,22.90
2022-11-29T12:12:27.407Z,25.37
2022-11-29T12:15:07.529Z,24.53
2022-11-29T12:17:41.911Z,19.23
2022-11-29T12:20:36.673Z,23.00
2022-11-29T12:23:12.254Z,21.10
2022-11-29T12:26:34.833Z,21.10
2022-11-29T12:29:16.209Z,20.67
2022-11-29T12:32:15.808Z,20.67
2022-11-29T12:34:50.258Z,18.20
2022-11-29T12:37:43.797Z,20.83
2022-11-29T12:41:06.575Z,18.70
2022-11-29T12:43:51.423Z,21.10
2022-11-29T12:46:26.286Z,20.00
2022-11-29T12:49:27.358Z,21.67
2022-11-29T12:52:39.406Z,21.47
2022-11-29T12:55:57.315Z,22.60
2022-11-29T12:58:40.099Z,21.50
2022-11-29T13:01:17.283Z,25.23
2022-11-29T13:04:08.089Z,21.43
2022-11-29T13:07:10.148Z,21.83
2022-11-29T13:10:18.205Z,26.47
2022-11-29T13:13:08.744Z,30.63
2022-11-29T13:15:56.593Z,27.10
2022-11-29T13:18:37.605Z,27.57
2022-11-29T13:21:15.848Z,25.77
2022-11-29T13:24:10.685Z,31.03
2022-11-29T13:26:40.684Z,27.70
2022-11-29T13:29:17.039Z,25.20
2022-11-29T13:31:46.093Z,28.17
2022-11-29T13:34:17.105Z,25.93
2022-11-29T13:37:23.813Z,29.20
2022-11-29T13:40:31.408Z,27.10
2022-11-29T13:43:40.191Z,27.30
2022-11-29T13:47:03.354Z,26.43
2022-11-29T13:49:53.749Z,25.43
2022-11-29T13:52:39.186Z,24.27
2022-11-29T13:55:09.948Z,23.53
2022-11-29T13:58:16.630Z,22.23
2022-11-29T14:00:44.370Z,23.60
2022-11-29T14:03:38.609Z,25.53
2022-11-29T14:06:18.601Z,25.87
2022-11-29T14:11:42.960Z,23.23
2022-11-29T14:14:29.533Z,25.20
2022-11-29T14:17:02.054Z,24.43
2022-11-29T14:19:35.061Z,23.33
2022-11-29T14:22:01.804Z,25.43
2022-11-29T14:24:37.278Z,26.73
2022-11-29T14:27:07.594Z,29.43
2022-11-29T14:29:55.227Z,29.40
2022-11-29T14:32:49.771Z,25.80
2022-11-29T14:35:45.619Z,27.60
2022-11-29T14:38:42.425Z,28.37
2022-11-29T14:41:50.999Z,28.07
2022-11-29T14:44:22.331Z,27.83
2022-11-29T14:47:03.102Z,27.23
2022-11-29T14:49:32.123Z,27.77
2022-11-29T14:52:12.766Z,28.77
2022-11-29T14:55:28.832Z,30.20
2022-11-29T14:58:03.574Z,33.50
2022-11-29T15:00:35.149Z,32.37
2022-11-29T15:03:20.540Z,27.63
2022-11-29T15:06:07.719Z,29.30
2022-11-29T15:08:46.938Z,29.63
2022-11-29T15:11:31.401Z,31.00
2022-11-29T15:14:15.383Z,28.10
2022-11-29T15:17:19.728Z,27.67
2022-11-29T15:20:19.597Z,29.17
2022-11-29T15:22:52.436Z,25.60
2022-11-29T15:25:31.063Z,26.73
2022-11-29T15:28:06.087Z,28.17
2022-11-29T15:30:41.410Z,27.03
2022-11-29T15:33:29.191Z,27.20
2022-11-29T15:36:07.634Z,28.37
2022-11-29T15:38:54.869Z,26.03
2022-11-29T15:41:30.782Z,26.77
2022-11-29T15:44:05.710Z,24.50
2022-11-29T15:46:35.289Z,23.83
2022-11-29T15:49:27.884Z,24.17
2022-11-29T15:52:00.930Z,26.57
2022-11-29T15:54:47.364Z,27.33
2022-11-29T15:57:38.968Z,31.17
2022-11-29T16:00:12.052Z,31.33
2022-11-29T16:02:46.258Z,33.90
2022-11-29T16:05:25.379Z,31.30
2022-11-29T16:07:57.810Z,29.53
2022-11-29T16:10:52.793Z,24.97
2022-11-29T16:13:25.768Z,26.43
2022-11-29T16:16:19.023Z,25.80
2022-11-29T16:18:48.803Z,27.03
2022-11-29T16:21:32.686Z,24.00
2022-11-29T16:24:19.584Z,24.17
2022-11-29T16:26:49.017Z,23.80
2022-11-29T16:29:45.176Z,28.60
2022-11-29T16:32:35.110Z,23.83
2022-11-29T16:35:22.240Z,28.30
2022-11-29T16:37:49.349Z,26.77
2022-11-29T16:40:31.407Z,26.00
2022-11-29T16:43:04.398Z,26.87
2022-11-29T16:45:37.995Z,28.23
2022-11-29T16:48:26.591Z,25.27
2022-11-29T16:51:16.227Z,28.07
2022-11-29T16:53:53.291Z,25.50
2022-11-29T16:56:26.184Z,23.03
2022-11-29T16:59:20.542Z,25.27
2022-11-29T17:01:44.637Z,27.77
2022-11-29T17:04:11.501Z,25.73
2022-11-29T17:06:38.410Z,24.77
2022-11-29T17:09:05.893Z,25.07
2022-11-29T17:11:33.072Z,26.90
2022-11-29T17:13:59.863Z,26.10
2022-11-29T17:16:27.054Z,25.80
2022-11-29T17:18:53.956Z,25.73
2022-11-29T17:21:29.438Z,25.33
2022-11-29T17:23:56.298Z,28.97
2022-11-29T17:26:24.211Z,25.47
2022-11-29T17:28:52.299Z,25.20
2022-11-29T17:31:22.799Z,32.10
2022-11-29T17:33:50.270Z,25.70
2022-11-29T17:36:20.271Z,26.60
2022-11-29T17:38:48.045Z,29.13
2022-11-29T17:41:24.299Z,26.47
2022-11-29T17:43:53.428Z,29.20
2022-11-29T17:46:26.604Z,29.17
2022-11-29T17:49:12.115Z,27.92
2022-11-29T17:51:51.776Z,29.73
2022-11-29T17:54:19.388Z,28.33
2022-11-29T17:56:46.226Z,28.17
2022-11-29T17:59:12.999Z,28.37
2022-11-29T18:01:39.916Z,28.30
2022-11-29T18:04:08.278Z,25.30
2022-11-29T18:06:38.393Z,29.40
2022-11-29T18:09:08.619Z,29.83
2022-11-29T18:11:46.996Z,30.43
2022-11-29T18:14:18.715Z,28.40
2022-11-29T18:16:45.897Z,30.03
2022-11-29T18:19:17.449Z,27.57
2022-11-29T18:21:44.463Z,29.00
2022-11-29T18:24:11.772Z,30.67
2022-11-29T18:26:39.523Z,28.57
2022-11-29T18:29:07.772Z,30.03
2022-11-29T18:31:38.385Z,27.53
2022-11-29T18:34:09.649Z,28.80
2022-11-29T18:36:43.050Z,30.47
2022-11-29T18:39:16.582Z,32.70
2022-11-29T18:41:46.669Z,29.70
2022-11-29T18:44:16.777Z,28.80
2022-11-29T18:46:45.088Z,27.53
2022-11-29T18:49:15.292Z,28.57
2022-11-29T18:51:44.573Z,28.63
2022-11-29T18:54:12.493Z,31.07
2022-11-29T18:56:39.861Z,28.33
2022-11-29T18:59:16.906Z,30.17
2022-11-29T19:01:46.142Z,28.80
2022-11-29T19:04:16.859Z,28.57
2022-11-29T19:06:44.335Z,29.60
2022-11-29T19:09:18.447Z,29.33
2022-11-29T19:11:45.270Z,32.17
2022-11-29T19:14:12.939Z,28.83
2022-11-29T19:16:46.207Z,30.80
2022-11-29T19:19:13.497Z,25.57
2022-11-29T19:21:41.339Z,28.93
2022-11-29T19:24:14.563Z,32.03
2022-11-29T19:26:47.059Z,26.77
2022-11-29T19:29:15.210Z,27.10
2022-11-29T19:31:42.571Z,28.30
2022-11-29T19:34:09.574Z,27.67
2022-11-29T19:36:42.299Z,27.70
2022-11-29T19:39:10.074Z,28.10
2022-11-29T19:41:37.817Z,27.13
2022-11-29T19:44:07.683Z,31.50
2022-11-29T19:46:40.998Z,27.90
2022-11-29T19:49:09.382Z,29.27
2022-11-29T19:51:36.902Z,30.70
2022-11-29T19:54:07.413Z,29.97
2022-11-29T19:56:34.343Z,27.53
2022-11-29T19:59:01.269Z,27.43
2022-11-29T20:01:37.894Z,30.10
2022-11-29T20:04:06.669Z,25.97
2022-11-29T20:06:33.570Z,27.33
2022-11-29T20:09:00.407Z,31.93
2022-11-29T20:11:27.377Z,33.97
2022-11-29T20:14:05.595Z,30.67
2022-11-29T20:16:33.438Z,31.13
2022-11-29T20:19:01.546Z,31.00
2022-11-29T20:21:32.269Z,30.83
2022-11-29T20:24:05.841Z,29.77
2022-11-29T20:26:36.055Z,31.57
2022-11-29T20:29:05.563Z,31.57
2022-11-29T20:31:35.043Z,32.47
2022-11-29T20:34:02.030Z,32.20
2022-11-29T20:37:07.279Z,33.53
2022-11-29T20:39:52.501Z,32.90
2022-11-29T20:42:44.459Z,34.23
2022-11-29T20:45:13.892Z,35.30
2022-11-29T20:47:48.561Z,34.43
2022-11-29T20:50:23.758Z,34.47
2022-11-29T20:53:20.022Z,29.37
2022-11-29T20:55:49.301Z,32.20
2022-11-29T20:58:18.222Z,33.90
2022-11-29T21:00:46.159Z,33.30
2022-11-29T21:03:18.140Z,33.67
2022-11-29T21:05:45.648Z,33.07
2022-11-29T21:08:13.372Z,32.73
2022-11-29T21:10:40.469Z,31.80
2022-11-29T21:13:07.961Z,32.37
2022-11-29T21:15:35.370Z,30.10
2022-11-29T21:18:02.673Z,30.90
2022-11-29T21:20:29.848Z,32.20
2022-11-29T21:23:06.246Z,29.33
2022-11-29T21:25:59.680Z,36.77
2022-11-29T21:28:34.987Z,33.70
2022-11-29T21:31:02.169Z,32.90
2022-11-29T21:33:29.500Z,34.00
2022-11-29T21:35:59.552Z,38.93
2022-11-29T21:38:28.880Z,35.73
2022-11-29T21:40:55.661Z,35.20
2022-11-29T21:43:28.732Z,36.33
2022-11-29T21:46:09.413Z,34.63
2022-11-29T21:48:37.684Z,33.90
2022-11-29T21:51:09.876Z,37.23
2022-11-29T21:53:38.122Z,36.00
2022-11-29T21:56:08.556Z,32.70
2022-11-29T21:58:38.384Z,36.67
2022-11-29T22:01:14.781Z,36.30
2022-11-29T22:03:42.287Z,35.57
2022-11-29T22:06:13.462Z,34.77
2022-11-29T22:08:41.594Z,32.37
2022-11-29T22:11:15.134Z,38.23
2022-11-29T22:14:03.108Z,34.73
2022-11-29T22:16:30.205Z,32.20
2022-11-29T22:18:57.169Z,30.30
2022-11-29T22:21:24.047Z,29.03
2022-11-29T22:23:52.608Z,31.70
2022-11-29T22:26:19.513Z,33.97
2022-11-29T22:28:46.338Z,35.27
2022-11-29T22:31:13.463Z,33.27
2022-11-29T22:33:40.570Z,33.33
2022-11-29T22:36:11.249Z,35.03
2022-11-29T22:38:39.189Z,34.40
2022-11-29T22:41:09.870Z,30.23
2022-11-29T22:43:37.876Z,31.53
2022-11-29T22:46:20.258Z,31.87
2022-11-29T22:48:50.725Z,32.43
2022-11-29T22:51:20.921Z,33.20
2022-11-29T22:53:52.249Z,33.77
2022-11-29T22:56:19.453Z,31.47
2022-11-29T22:58:46.818Z,31.17
2022-11-29T23:01:20.339Z,35.83
2022-11-29T23:03:54.199Z,31.17
2022-11-29T23:06:31.123Z,30.83
2022-11-29T23:09:03.707Z,31.67
2022-11-29T23:11:31.373Z,31.60
2022-11-29T23:13:58.736Z,35.27
2022-11-29T23:16:29.435Z,35.30
2022-11-29T23:18:58.759Z,35.20
2022-11-29T23:21:32.153Z,35.83
2022-11-29T23:24:00.867Z,33.50
2022-11-29T23:26:37.374Z,33.10
2022-11-29T23:29:07.159Z,34.53
2022-11-29T23:31:34.304Z,36.30
2022-11-29T23:34:02.512Z,35.40
2022-11-29T23:36:29.571Z,31.93
2022-11-29T23:38:56.372Z,33.13
2022-11-29T23:41:23.221Z,34.17
2022-11-29T23:43:50.184Z,33.97
2022-11-29T23:46:20.659Z,34.27
2022-11-29T23:48:48.311Z,33.07
2022-11-29T23:51:16.858Z,39.03
2022-11-29T23:53:44.286Z,36.63
2022-11-29T23:56:15.479Z,33.53
2022-11-29T23:58:43.574Z,36.30
